Time;durP1;ratioP1;P1;durP2;ratioP2;P2;SDS_P1;SDS_P2;PMS_P1;PMS_P2;Temp;Humidity;BMP_temperature;BMP_pressure;BME280_temperature;BME280_humidity;BME280_pressure;Samples;Min_cycle;Max_cycle;Signal;HPM_P1;HPM_P2
2022/03/14 00:01:30;;;;;;;;;;;;;;;;;;4821934;29;20050;-64
2022/03/14 00:03:58;;;;;;;22.98;14.35;;;;;;;;;;4821844;29;19925;-64
2022/03/14 00:06:25;;;;;;;23.73;15.43;;;;;;;;;;4821444;29;20545;-64
2022/03/14 00:08:54;;;;;;;27.92;15.40;;;;;;;;;;4821617;29;20163;-64
2022/03/14 00:11:20;;;;;;;26.33;15.23;;;;;;;;;;4822073;29;20142;-64
2022/03/14 00:13:47;;;;;;;24.45;14.57;;;;;;;;;;4821674;29;20181;-64
2022/03/14 00:16:23;;;;;;;23.40;14.68;;;;;;;;;;4805226;29;20112;-64
2022/03/14 00:18:51;;;;;;;23.23;14.48;;;;;;;;;;4821678;29;20098;-64
2022/03/14 00:21:23;;;;;;;24.95;15.18;;;;;;;;;;4821628;29;20479;-64
2022/03/14 00:23:49;;;;;;;24.40;14.60;;;;;;;;;;4821579;29;20504;-64
2022/03/14 00:26:15;;;;;;;;;;;;;;;;;;4821759;29;20055;-65
2022/03/14 00:28:42;;;;;;;26.83;15.38;;;;;;;;;;4821725;29;20010;-65
2022/03/14 00:31:08;;;;;;;24.67;14.82;;;;;;;;;;4821778;29;20054;-65
2022/03/14 00:33:36;;;;;;;23.75;15.55;;;;;;;;;;4821027;29;20089;-66
2022/03/14 00:36:02;;;;;;;25.83;14.27;;;;;;;;;;4822469;29;20050;-65
2022/03/14 00:38:28;;;;;;;23.13;14.27;;;;;;;;;;4835524;29;20102;-64
2022/03/14 00:40:57;;;;;;;23.77;14.77;;;;;;;;;;4821625;29;20114;-65
2022/03/14 00:43:23;;;;;;;22.10;13.98;;;;;;;;;;4821557;29;20062;-64
2022/03/14 00:45:49;;;;;;;22.73;13.35;;;;;;;;;;4821613;29;20078;-65
2022/03/14 00:48:15;;;;;;;23.50;14.20;;;;;;;;;;4821697;29;20113;-65
2022/03/14 00:50:44;;;;;;;22.45;14.38;;;;;;;;;;4820972;29;20058;-65
2022/03/14 00:53:10;;;;;;;24.08;14.27;;;;;;;;;;4821378;29;20054;-65
2022/03/14 00:55:36;;;;;;;22.35;13.27;;;;;;;;;;4821231;29;20054;-65
2022/03/14 00:58:02;;;;;;;23.50;13.82;;;;;;;;;;4804654;29;20054;-65
2022/03/14 01:00:28;;;;;;;24.13;13.80;;;;;;;;;;4821613;29;20191;-65
2022/03/14 01:02:54;;;;;;;;;;;;;;;;;;4821387;29;20104;-66
2022/03/14 01:05:20;;;;;;;24.13;13.77;;;;;;;;;;4804797;29;20041;-65
2022/03/14 01:07:46;;;;;;;22.65;14.02;;;;;;;;;;4834863;29;20050;-66
2022/03/14 01:10:16;;;;;;;26.10;14.45;;;;;;;;;;4820980;29;20061;-65
2022/03/14 01:12:42;;;;;;;22.55;13.73;;;;;;;;;;4820827;29;20483;-64
2022/03/14 01:15:09;;;;;;;24.67;14.55;;;;;;;;;;4820970;29;20429;-65
2022/03/14 01:17:36;;;;;;;22.77;14.32;;;;;;;;;;4820913;29;20057;-66
2022/03/14 01:20:03;;;;;;;24.35;14.02;;;;;;;;;;4821057;29;20445;-65
2022/03/14 01:22:30;;;;;;;26.27;14.60;;;;;;;;;;4804439;29;20152;-65
2022/03/14 01:24:56;;;;;;;22.30;14.02;;;;;;;;;;4820621;29;20440;-65
2022/03/14 01:27:22;;;;;;;22.92;13.50;;;;;;;;;;4820590;29;20042;-65
2022/03/14 01:29:48;;;;;;;22.25;14.00;;;;;;;;;;4789279;29;20471;-64
2022/03/14 01:32:14;;;;;;;20.50;12.82;;;;;;;;;;4820693;29;20165;-65
2022/03/14 01:34:40;;;;;;;21.67;13.20;;;;;;;;;;4820923;29;20062;-65
2022/03/14 01:37:07;;;;;;;20.98;12.95;;;;;;;;;;4820734;29;20133;-65
2022/03/14 01:39:34;;;;;;;22.58;13.73;;;;;;;;;;4834121;29;20054;-65
2022/03/14 01:42:00;;;;;;;22.88;13.07;;;;;;;;;;4834666;29;20149;-65
2022/03/14 01:44:26;;;;;;;22.52;13.68;;;;;;;;;;4820660;29;20080;-65
2022/03/14 01:46:53;;;;;;;23.75;13.50;;;;;;;;;;4820797;29;20054;-65
2022/03/14 01:49:19;;;;;;;22.23;13.82;;;;;;;;;;4804264;29;20070;-64
2022/03/14 01:51:45;;;;;;;;;;;;;;;;;;4820872;29;20091;-65
2022/03/14 01:54:12;;;;;;;22.73;13.30;;;;;;;;;;4820412;29;20313;-65
2022/03/14 01:56:39;;;;;;;22.25;13.35;;;;;;;;;;4820416;29;20479;-65
2022/03/14 01:59:05;;;;;;;24.48;13.23;;;;;;;;;;4804351;29;20058;-65
2022/03/14 02:01:32;;;;;;;22.55;13.52;;;;;;;;;;4820082;29;20125;-65
2022/03/14 02:03:59;;;;;;;21.95;13.48;;;;;;;;;;4820123;29;20344;-65
2022/03/14 02:06:27;;;;;;;;;;;;;;;;;;4820880;29;20082;-66
2022/03/14 02:08:53;;;;;;;24.55;13.75;;;;;;;;;;4819150;29;20056;-65
2022/03/14 02:11:19;;;;;;;21.48;12.35;;;;;;;;;;4820863;29;20138;-65
2022/03/14 02:13:46;;;;;;;25.73;13.30;;;;;;;;;;4804172;29;20107;-65
2022/03/14 02:16:12;;;;;;;20.80;12.63;;;;;;;;;;4834143;29;20054;-65
2022/03/14 02:18:38;;;;;;;21.30;13.27;;;;;;;;;;4820625;29;20200;-65
2022/03/14 02:21:06;;;;;;;21.00;13.60;;;;;;;;;;4820049;29;20074;-65
2022/03/14 02:23:32;;;;;;;21.65;12.82;;;;;;;;;;4834274;29;20054;-65
2022/03/14 02:26:00;;;;;;;21.35;12.93;;;;;;;;;;4820135;29;20110;-65
2022/03/14 02:28:27;;;;;;;19.88;12.70;;;;;;;;;;4834017;29;20349;-65
2022/03/14 02:30:53;;;;;;;20.80;12.27;;;;;;;;;;4803426;29;20103;-65
2022/03/14 02:33:20;;;;;;;19.30;12.32;;;;;;;;;;4833756;29;20046;-65
2022/03/14 02:35:47;;;;;;;21.85;13.00;;;;;;;;;;4819942;29;20234;-65
2022/03/14 02:38:17;;;;;;;21.45;12.30;;;;;;;;;;4802847;29;20069;-65
2022/03/14 02:40:45;;;;;;;20.58;12.50;;;;;;;;;;4819714;29;20084;-65
2022/03/14 02:43:14;;;;;;;18.67;11.82;;;;;;;;;;4819186;29;20511;-64
2022/03/14 02:45:41;;;;;;;20.05;11.77;;;;;;;;;;4819529;29;20137;-65
2022/03/14 02:48:07;;;;;;;21.60;12.57;;;;;;;;;;4819641;29;20046;-65
2022/03/14 02:50:35;;;;;;;20.60;11.75;;;;;;;;;;4833261;29;20055;-65
2022/03/14 02:53:01;;;;;;;19.63;11.65;;;;;;;;;;4833457;29;20479;-65
2022/03/14 02:55:28;;;;;;;23.00;12.23;;;;;;;;;;4819618;29;20149;-65
2022/03/14 02:57:54;;;;;;;19.20;11.30;;;;;;;;;;4833587;29;20080;-65
2022/03/14 03:00:20;;;;;;;;;;;;;;;;;;4820316;29;20054;-65
2022/03/14 03:02:46;;;;;;;20.80;12.10;;;;;;;;;;4818996;29;19996;-65
2022/03/14 03:05:12;;;;;;;18.67;11.20;;;;;;;;;;4819540;29;20564;-66
2022/03/14 03:07:39;;;;;;;21.38;12.57;;;;;;;;;;4819826;29;20062;-65
2022/03/14 03:10:07;;;;;;;20.15;12.13;;;;;;;;;;4819216;29;20110;-65
2022/03/14 03:12:34;;;;;;;21.27;11.82;;;;;;;;;;4819447;29;20444;-65
2022/03/14 03:15:00;;;;;;;18.83;11.90;;;;;;;;;;4821924;29;20161;-66
2022/03/14 03:17:26;;;;;;;18.38;11.20;;;;;;;;;;4836888;29;20149;-66
2022/03/14 03:19:52;;;;;;;18.75;11.10;;;;;;;;;;4836902;29;20514;-65
2022/03/14 03:22:18;;;;;;;22.42;11.25;;;;;;;;;;4821738;29;20157;-66
2022/03/14 03:24:44;;;;;;;19.27;10.65;;;;;;;;;;4822740;29;20137;-65
2022/03/14 03:27:10;;;;;;;17.52;11.00;;;;;;;;;;4822703;29;20136;-65
2022/03/14 03:29:36;;;;;;;16.73;10.32;;;;;;;;;;4822589;29;20126;-65
2022/03/14 03:32:02;;;;;;;;;;;;;;;;;;4823067;29;20157;-65
2022/03/14 03:34:28;;;;;;;19.90;10.95;;;;;;;;;;4806090;29;20239;-65
2022/03/14 03:36:54;;;;;;;16.27;9.82;;;;;;;;;;4822834;29;20201;-65
2022/03/14 03:39:21;;;;;;;16.02;9.88;;;;;;;;;;4822404;29;20069;-65
2022/03/14 03:41:47;;;;;;;16.30;10.07;;;;;;;;;;4822436;29;20133;-66
2022/03/14 03:44:13;;;;;;;15.43;8.98;;;;;;;;;;4836304;29;20118;-66
2022/03/14 03:46:39;;;;;;;15.55;8.93;;;;;;;;;;4822132;29;20042;-65
2022/03/14 03:49:05;;;;;;;17.60;9.13;;;;;;;;;;4836387;29;20106;-66
2022/03/14 03:51:31;;;;;;;16.48;9.23;;;;;;;;;;4821922;29;20094;-66
2022/03/14 03:53:57;;;;;;;17.17;9.70;;;;;;;;;;4821807;29;20058;-65
2022/03/14 03:56:23;;;;;;;34.58;9.95;;;;;;;;;;4821889;29;20066;-65
2022/03/14 03:58:49;;;;;;;16.05;9.25;;;;;;;;;;4822131;29;20166;-65
2022/03/14 04:01:22;;;;;;;16.75;10.15;;;;;;;;;;4821986;29;20050;-65
2022/03/14 04:03:54;;;;;;;17.30;10.32;;;;;;;;;;4805058;29;20071;-65
2022/03/14 04:06:20;;;;;;;15.05;9.43;;;;;;;;;;4805018;29;20054;-65
2022/03/14 04:08:47;;;;;;;16.67;9.27;;;;;;;;;;4835735;29;20101;-66
2022/03/14 04:11:13;;;;;;;17.85;10.02;;;;;;;;;;4821451;29;20059;-67
2022/03/14 04:13:39;;;;;;;;;;;;;;;;;;4835841;29;20058;-66
2022/03/14 04:16:05;;;;;;;18.13;10.18;;;;;;;;;;4804757;29;19925;-66
2022/03/14 04:18:31;;;;;;;15.98;10.23;;;;;;;;;;4835762;29;20070;-66
2022/03/14 04:20:58;;;;;;;16.58;9.98;;;;;;;;;;4804886;29;20058;-66
2022/03/14 04:23:24;;;;;;;16.92;9.93;;;;;;;;;;4821111;29;20061;-66
2022/03/14 04:25:50;;;;;;;15.93;8.95;;;;;;;;;;4821114;29;20053;-66
2022/03/14 04:28:16;;;;;;;17.73;10.20;;;;;;;;;;4821230;29;20103;-66
2022/03/14 04:30:43;;;;;;;16.50;8.75;;;;;;;;;;4821444;29;20102;-66
2022/03/14 04:33:09;;;;;;;13.30;7.68;;;;;;;;;;4821321;29;20050;-66
2022/03/14 04:35:35;;;;;;;;;;;;;;;;;;4805181;29;20456;-66
2022/03/14 04:38:02;;;;;;;15.63;8.00;;;;;;;;;;4820149;29;19928;-66
2022/03/14 04:40:28;;;;;;;16.02;7.88;;;;;;;;;;4820927;29;20490;-66
2022/03/14 04:42:55;;;;;;;13.38;7.38;;;;;;;;;;4821486;29;20058;-66
2022/03/14 04:45:21;;;;;;;14.07;7.75;;;;;;;;;;4835094;29;20077;-66
2022/03/14 04:47:47;;;;;;;14.40;7.55;;;;;;;;;;4821371;29;20081;-66
2022/03/14 04:50:14;;;;;;;13.13;6.90;;;;;;;;;;4835069;29;20095;-66
2022/03/14 04:52:40;;;;;;;14.45;7.28;;;;;;;;;;4821329;29;20078;-65
2022/03/14 04:55:07;;;;;;;13.25;6.95;;;;;;;;;;4821110;29;20165;-65
2022/03/14 04:57:33;;;;;;;12.63;7.25;;;;;;;;;;4821143;29;20094;-66
2022/03/14 04:59:59;;;;;;;12.00;6.35;;;;;;;;;;4821309;29;20051;-66
2022/03/14 05:02:25;;;;;;;12.50;7.00;;;;;;;;;;4821071;29;20054;-65
2022/03/14 05:04:52;;;;;;;12.88;6.80;;;;;;;;;;4820986;29;20071;-66
2022/03/14 05:07:21;;;;;;;13.25;7.15;;;;;;;;;;4821173;29;20103;-65
2022/03/14 05:09:47;;;;;;;13.77;6.65;;;;;;;;;;4819614;29;20050;-65
2022/03/14 05:12:14;;;;;;;12.18;6.93;;;;;;;;;;4820885;29;20055;-65
2022/03/14 05:14:40;;;;;;;13.05;6.30;;;;;;;;;;4820788;29;20196;-65
2022/03/14 05:17:06;;;;;;;13.30;6.55;;;;;;;;;;4803896;29;20081;-65
2022/03/14 05:19:35;;;;;;;12.43;6.63;;;;;;;;;;4820784;29;20141;-65
2022/03/14 05:22:02;;;;;;;14.55;6.10;;;;;;;;;;4820611;29;20349;-66
2022/03/14 05:24:28;;;;;;;13.98;6.90;;;;;;;;;;4820509;29;20078;-65
2022/03/14 05:26:55;;;;;;;10.98;5.38;;;;;;;;;;4820452;29;20062;-66
2022/03/14 05:29:21;;;;;;;12.77;6.00;;;;;;;;;;4820337;29;20058;-65
2022/03/14 05:31:47;;;;;;;12.02;5.70;;;;;;;;;;4803792;29;20054;-65
2022/03/14 05:34:14;;;;;;;11.80;5.90;;;;;;;;;;4820220;29;20367;-66
2022/03/14 05:36:40;;;;;;;12.15;5.88;;;;;;;;;;4819650;29;20125;-65
2022/03/14 05:39:07;;;;;;;11.82;6.10;;;;;;;;;;4820367;29;20509;-66
2022/03/14 05:41:33;;;;;;;10.98;5.53;;;;;;;;;;4819931;29;20122;-65
2022/03/14 05:43:59;;;;;;;11.48;5.60;;;;;;;;;;4820123;29;20482;-65
2022/03/14 05:46:25;;;;;;;11.20;6.10;;;;;;;;;;4833690;29;20348;-65
2022/03/14 05:48:51;;;;;;;11.88;5.55;;;;;;;;;;4820462;29;20477;-66
2022/03/14 05:51:17;;;;;;;11.90;6.15;;;;;;;;;;4803599;29;20162;-65
2022/03/14 05:53:43;;;;;;;11.95;6.10;;;;;;;;;;4833615;29;20070;-66
2022/03/14 05:56:09;;;;;;;12.63;5.85;;;;;;;;;;4803791;29;20058;-65
2022/03/14 05:58:35;;;;;;;12.15;5.75;;;;;;;;;;4833500;29;20117;-65
2022/03/14 06:01:01;;;;;;;11.93;6.10;;;;;;;;;;4803252;29;20375;-65
2022/03/14 06:03:27;;;;;;;11.48;5.45;;;;;;;;;;4820147;29;20129;-65
2022/03/14 06:05:53;;;;;;;11.98;6.10;;;;;;;;;;4819663;29;20453;-65
2022/03/14 06:08:19;;;;;;;12.93;6.10;;;;;;;;;;4820166;29;20149;-65
2022/03/14 06:10:46;;;;;;;11.20;6.15;;;;;;;;;;4802888;29;20129;-66
2022/03/14 06:13:13;;;;;;;12.93;6.00;;;;;;;;;;4818710;29;20094;-65
2022/03/14 06:15:40;;;;;;;11.70;6.28;;;;;;;;;;4818760;29;20125;-65
2022/03/14 06:18:05;;;;;;;;;;;;;;;;;;4820468;29;20146;-65
2022/03/14 06:20:32;;;;;;;11.38;6.07;;;;;;;;;;4818578;29;20036;-65
2022/03/14 06:22:58;;;;;;;11.27;6.22;;;;;;;;;;4818253;29;20280;-65
2022/03/14 06:25:24;;;;;;;12.52;6.05;;;;;;;;;;4817744;29;20581;-65
2022/03/14 06:27:50;;;;;;;12.95;6.10;;;;;;;;;;4817968;29;20062;-66
2022/03/14 06:30:16;;;;;;;;;;;;;;;;;;4818168;29;20134;-65
2022/03/14 06:32:43;;;;;;;11.27;5.88;;;;;;;;;;4801691;29;20002;-66
2022/03/14 06:35:12;;;;;;;11.60;6.15;;;;;;;;;;4817716;29;20094;-66
2022/03/14 06:37:39;;;;;;;13.02;6.43;;;;;;;;;;4817776;29;20123;-64
2022/03/14 06:40:05;;;;;;;11.95;6.40;;;;;;;;;;4817603;29;20140;-65
2022/03/14 06:42:32;;;;;;;11.32;6.22;;;;;;;;;;4801318;29;20062;-64
2022/03/14 06:45:01;;;;;;;12.15;6.30;;;;;;;;;;4817612;29;20468;-65
2022/03/14 06:47:27;;;;;;;12.55;6.82;;;;;;;;;;4817858;29;20081;-65
2022/03/14 06:49:54;;;;;;;12.23;6.53;;;;;;;;;;4804703;29;20368;-65
2022/03/14 06:52:21;;;;;;;13.98;6.97;;;;;;;;;;4820137;29;20437;-65
2022/03/14 06:54:47;;;;;;;12.43;6.75;;;;;;;;;;4820008;29;20496;-64
2022/03/14 06:57:13;;;;;;;14.02;7.05;;;;;;;;;;4820557;29;20058;-65
2022/03/14 06:59:39;;;;;;;12.40;6.95;;;;;;;;;;4835273;29;20058;-64
2022/03/14 07:02:06;;;;;;;14.48;6.68;;;;;;;;;;4821121;29;20076;-65
2022/03/14 07:04:34;;;;;;;14.02;7.20;;;;;;;;;;4804229;29;20054;-64
2022/03/14 07:07:01;;;;;;;16.50;7.10;;;;;;;;;;4820976;29;20121;-65
2022/03/14 07:09:27;;;;;;;13.93;7.28;;;;;;;;;;4820789;29;20111;-65
2022/03/14 07:11:53;;;;;;;;;;;;;;;;;;4804562;29;20081;-64
2022/03/14 07:14:20;;;;;;;13.80;7.70;;;;;;;;;;4821210;29;19994;-64
2022/03/14 07:16:46;;;;;;;13.02;7.53;;;;;;;;;;4819076;29;20054;-64
2022/03/14 07:19:12;;;;;;;;;;;;;;;;;;4820999;29;20102;-64
2022/03/14 07:21:39;;;;;;;13.60;7.97;;;;;;;;;;4820473;29;20000;-65
2022/03/14 07:24:05;;;;;;;13.50;7.82;;;;;;;;;;4820482;29;20069;-64
2022/03/14 07:26:31;;;;;;;15.15;7.95;;;;;;;;;;4820386;29;20046;-65
2022/03/14 07:28:57;;;;;;;14.93;8.23;;;;;;;;;;4804278;29;20054;-64
2022/03/14 07:31:24;;;;;;;14.20;7.88;;;;;;;;;;4834155;29;20348;-64
2022/03/14 07:33:50;;;;;;;13.70;8.07;;;;;;;;;;4821112;29;20078;-64
2022/03/14 07:36:17;;;;;;;;;;;;;;;;;;4820861;29;20054;-65
2022/03/14 07:38:43;;;;;;;14.05;8.60;;;;;;;;;;4820273;29;19980;-65
2022/03/14 07:41:10;;;;;;;15.75;8.75;;;;;;;;;;4821126;29;20153;-65
2022/03/14 07:43:36;;;;;;;15.82;8.35;;;;;;;;;;4819964;29;20525;-65
2022/03/14 07:46:02;;;;;;;14.40;8.30;;;;;;;;;;4820249;29;20058;-66
2022/03/14 07:48:28;;;;;;;16.10;8.13;;;;;;;;;;4834088;29;20054;-65
2022/03/14 07:50:55;;;;;;;14.27;8.35;;;;;;;;;;4834312;29;20425;-65
2022/03/14 07:53:21;;;;;;;14.30;8.65;;;;;;;;;;4819790;29;20054;-65
2022/03/14 07:55:47;;;;;;;;;;;;;;;;;;4834266;29;20183;-65
2022/03/14 07:58:15;;;;;;;14.55;8.95;;;;;;;;;;4803633;29;19989;-66
2022/03/14 08:00:41;;;;;;;15.77;9.32;;;;;;;;;;4833173;29;20054;-65
2022/03/14 08:03:07;;;;;;;17.13;9.40;;;;;;;;;;4819798;29;20415;-65
2022/03/14 08:05:33;;;;;;;14.55;9.30;;;;;;;;;;4819635;29;20122;-65
2022/03/14 08:08:00;;;;;;;15.48;9.32;;;;;;;;;;4803459;29;20060;-66
2022/03/14 08:10:26;;;;;;;15.35;9.30;;;;;;;;;;4803374;29;20165;-65
2022/03/14 08:12:53;;;;;;;16.35;9.88;;;;;;;;;;4833353;29;20069;-64
2022/03/14 08:15:19;;;;;;;17.25;9.23;;;;;;;;;;4819151;29;20066;-64
2022/03/14 08:17:45;;;;;;;16.83;9.15;;;;;;;;;;4818856;29;20065;-65
2022/03/14 08:20:12;;;;;;;15.77;8.88;;;;;;;;;;4803029;29;20065;-65
2022/03/14 08:22:38;;;;;;;15.60;9.10;;;;;;;;;;4819264;29;20050;-66
2022/03/14 08:25:05;;;;;;;16.30;9.32;;;;;;;;;;4819547;29;20206;-65
2022/03/14 08:27:31;;;;;;;;;;;;;;;;;;4819952;29;20046;-65
2022/03/14 08:29:58;;;;;;;16.15;9.77;;;;;;;;;;4819264;29;20027;-65
2022/03/14 08:32:25;;;;;;;;;;;;;;;;;;4833677;29;20066;-66
2022/03/14 08:34:56;;;;;;;15.98;9.50;;;;;;;;;;4819169;29;19924;-66
2022/03/14 08:37:26;;;;;;;15.75;9.52;;;;;;;;;;4819425;29;20072;-66
2022/03/14 08:39:52;;;;;;;15.02;8.65;;;;;;;;;;4832759;29;20065;-66
2022/03/14 08:42:19;;;;;;;16.02;9.70;;;;;;;;;;4819184;29;20210;-66
2022/03/14 08:44:45;;;;;;;16.52;10.35;;;;;;;;;;4818889;29;20051;-66
2022/03/14 08:47:12;;;;;;;17.05;9.85;;;;;;;;;;4818842;29;20076;-65
2022/03/14 08:49:38;;;;;;;15.80;9.90;;;;;;;;;;4819148;29;20504;-66
2022/03/14 08:52:04;;;;;;;17.52;10.27;;;;;;;;;;4832794;29;20137;-65
2022/03/14 08:54:30;;;;;;;17.58;10.30;;;;;;;;;;4818493;29;20182;-65
2022/03/14 08:56:56;;;;;;;15.18;10.13;;;;;;;;;;4818897;29;20532;-65
2022/03/14 08:59:23;;;;;;;17.45;11.07;;;;;;;;;;4819164;29;20065;-65
2022/03/14 09:01:50;;;;;;;17.38;10.38;;;;;;;;;;4818444;29;20485;-65
2022/03/14 09:04:17;;;;;;;17.25;10.50;;;;;;;;;;4802924;29;20047;-65
2022/03/14 09:06:43;;;;;;;17.83;10.48;;;;;;;;;;4788301;29;20190;-65
2022/03/14 09:09:09;;;;;;;18.98;11.52;;;;;;;;;;4818682;29;20122;-65
2022/03/14 09:11:36;;;;;;;21.20;11.48;;;;;;;;;;4818547;29;20453;-65
2022/03/14 09:14:02;;;;;;;17.25;11.07;;;;;;;;;;4818624;29;20098;-65
2022/03/14 09:16:29;;;;;;;19.55;10.63;;;;;;;;;;4818679;29;20355;-66
2022/03/14 09:18:54;;;;;;;;;;;;;;;;;;4818694;29;20050;-66
2022/03/14 09:21:21;;;;;;;18.90;11.27;;;;;;;;;;4818591;29;19924;-65
2022/03/14 09:23:47;;;;;;;19.50;11.95;;;;;;;;;;4818240;29;20062;-65
2022/03/14 09:26:15;;;;;;;19.83;11.45;;;;;;;;;;4832167;29;20133;-65
2022/03/14 09:28:44;;;;;;;18.70;11.35;;;;;;;;;;4818303;29;20182;-66
2022/03/14 09:31:12;;;;;;;18.30;11.57;;;;;;;;;;4818222;29;20058;-65
2022/03/14 09:33:38;;;;;;;18.52;11.32;;;;;;;;;;4818197;29;20172;-65
2022/03/14 09:36:05;;;;;;;18.95;11.43;;;;;;;;;;4818084;29;20134;-66
2022/03/14 09:38:31;;;;;;;18.73;12.00;;;;;;;;;;4818396;29;20165;-65
2022/03/14 09:41:01;;;;;;;20.80;12.43;;;;;;;;;;4818086;29;20073;-65
2022/03/14 09:43:27;;;;;;;18.80;12.02;;;;;;;;;;4818205;29;20073;-66
2022/03/14 09:45:53;;;;;;;;;;;;;;;;;;4818671;29;20308;-65
2022/03/14 09:48:20;;;;;;;19.38;12.90;;;;;;;;;;4816374;29;20028;-66
2022/03/14 09:50:47;;;;;;;21.15;13.27;;;;;;;;;;4818000;29;20600;-65
2022/03/14 09:53:13;;;;;;;;;;;;;;;;;;4818218;29;20089;-66
2022/03/14 09:55:44;;;;;;;19.23;12.50;;;;;;;;;;4817435;29;20057;-66
2022/03/14 09:58:20;;;;;;;20.42;13.13;;;;;;;;;;4801404;29;20086;-66
2022/03/14 10:00:47;;;;;;;21.65;13.55;;;;;;;;;;4831699;29;20112;-66
2022/03/14 10:03:15;;;;;;;21.02;13.90;;;;;;;;;;4818167;29;20093;-67
2022/03/14 10:05:42;;;;;;;22.90;14.50;;;;;;;;;;4817918;29;20153;-66
2022/03/14 10:08:08;;;;;;;24.88;15.20;;;;;;;;;;4817872;29;20126;-66
2022/03/14 10:10:37;;;;;;;29.25;18.85;;;;;;;;;;4818247;29;20050;-67
2022/03/14 10:13:07;;;;;;;37.22;21.92;;;;;;;;;;4818295;29;20103;-65
2022/03/14 10:15:37;;;;;;;38.00;23.02;;;;;;;;;;4818546;29;20046;-66
2022/03/14 10:18:14;;;;;;;36.38;22.40;;;;;;;;;;4818587;29;20080;-66
2022/03/14 10:20:57;;;;;;;40.28;22.67;;;;;;;;;;4818655;29;20413;-65
2022/03/14 10:23:33;;;;;;;35.90;23.30;;;;;;;;;;4820557;29;20112;-65
2022/03/14 10:26:00;;;;;;;44.13;25.63;;;;;;;;;;4821833;29;20076;-65
2022/03/14 10:28:35;;;;;;;41.83;25.15;;;;;;;;;;4821741;29;20074;-63
2022/03/14 10:31:05;;;;;;;41.55;23.00;;;;;;;;;;4821917;29;20513;-64
2022/03/14 10:33:35;;;;;;;42.20;20.38;;;;;;;;;;4821121;29;20097;-63
2022/03/14 10:36:01;;;;;;;38.90;21.13;;;;;;;;;;4821225;29;20463;-64
2022/03/14 10:38:28;;;;;;;36.25;18.98;;;;;;;;;;4821784;29;20133;-64
2022/03/14 10:40:56;;;;;;;;;;;;;;;;;;4821932;29;20100;-63
2022/03/14 10:43:26;;;;;;;35.15;17.17;;;;;;;;;;4821323;29;19929;-64
2022/03/14 10:45:53;;;;;;;36.97;18.42;;;;;;;;;;4821259;29;20069;-64
2022/03/14 10:48:35;;;;;;;33.67;16.65;;;;;;;;;;4819909;29;20058;-64
2022/03/14 10:51:05;;;;;;;32.70;16.40;;;;;;;;;;4821288;29;20097;-65
2022/03/14 10:53:31;;;;;;;38.88;17.30;;;;;;;;;;4820684;29;20453;-64
2022/03/14 10:55:58;;;;;;;33.38;16.30;;;;;;;;;;4820751;29;20573;-64
2022/03/14 10:58:28;;;;;;;38.38;16.42;;;;;;;;;;4821148;29;20362;-65
2022/03/14 11:00:58;;;;;;;32.35;16.02;;;;;;;;;;4821151;29;20097;-65
2022/03/14 11:03:30;;;;;;;30.45;15.40;;;;;;;;;;4821068;29;20051;-64
2022/03/14 11:06:01;;;;;;;35.17;15.93;;;;;;;;;;4820905;29;20131;-64
2022/03/14 11:08:41;;;;;;;31.52;15.73;;;;;;;;;;4821128;29;20066;-65
2022/03/14 11:11:12;;;;;;;37.97;16.63;;;;;;;;;;4820626;29;20062;-64
2022/03/14 11:13:42;;;;;;;34.03;15.77;;;;;;;;;;4834535;29;20054;-65
2022/03/14 11:16:17;;;;;;;32.75;15.25;;;;;;;;;;4820792;29;20065;-65
2022/03/14 11:18:44;;;;;;;33.05;14.48;;;;;;;;;;4820576;29;20209;-64
2022/03/14 11:21:13;;;;;;;39.17;16.08;;;;;;;;;;4820541;29;20102;-73
2022/03/14 11:23:39;;;;;;;28.30;12.27;;;;;;;;;;4820515;29;20100;-64
2022/03/14 11:26:10;;;;;;;33.13;14.73;;;;;;;;;;4820295;29;20047;-64
2022/03/14 11:28:37;;;;;;;34.80;14.60;;;;;;;;;;4820565;29;20054;-64
2022/03/14 11:31:03;;;;;;;31.42;13.32;;;;;;;;;;4820234;29;20050;-64
2022/03/14 11:33:31;;;;;;;31.13;13.85;;;;;;;;;;4820388;29;20061;-64
2022/03/14 11:35:59;;;;;;;28.80;12.52;;;;;;;;;;4819236;29;20409;-66
2022/03/14 11:38:25;;;;;;;30.70;14.07;;;;;;;;;;4833772;29;20148;-68
2022/03/14 11:40:51;;;;;;;;;;;;;;;;;;4820936;29;20215;-66
2022/03/14 11:43:18;;;;;;;31.75;13.38;;;;;;;;;;4820219;29;20339;-66
2022/03/14 11:45:45;;;;;;;34.63;15.55;;;;;;;;;;4819921;29;20404;-66
2022/03/14 11:48:11;;;;;;;32.38;14.23;;;;;;;;;;4820367;29;20119;-65
2022/03/14 11:50:41;;;;;;;33.00;13.63;;;;;;;;;;4820169;29;20127;-66
2022/03/14 11:53:07;;;;;;;32.45;14.65;;;;;;;;;;4803634;29;20222;-68
2022/03/14 11:55:33;;;;;;;33.58;14.60;;;;;;;;;;4820098;29;20102;-66
2022/03/14 11:57:59;;;;;;;28.98;13.15;;;;;;;;;;4820128;29;20156;-66
2022/03/14 12:00:30;;;;;;;32.33;13.95;;;;;;;;;;4820222;29;20148;-66
2022/03/14 12:03:05;;;;;;;33.95;12.95;;;;;;;;;;4803663;29;20058;-66
2022/03/14 12:05:31;;;;;;;28.85;11.32;;;;;;;;;;4820018;29;20055;-66
2022/03/14 12:08:01;;;;;;;27.13;11.15;;;;;;;;;;4819778;29;20065;-66
2022/03/14 12:10:28;;;;;;;25.00;10.88;;;;;;;;;;4819909;29;20090;-66
2022/03/14 12:12:55;;;;;;;27.13;12.13;;;;;;;;;;4833541;29;20122;-66
2022/03/14 12:15:39;;;;;;;25.73;12.88;;;;;;;;;;4820579;29;20203;-67
2022/03/14 12:18:24;;;;;;;28.80;13.48;;;;;;;;;;4819211;29;20099;-66
2022/03/14 12:21:01;;;;;;;31.30;14.25;;;;;;;;;;4819284;29;20054;-66
2022/03/14 12:23:32;;;;;;;28.98;15.35;;;;;;;;;;4819357;29;20056;-66
2022/03/14 12:26:01;;;;;;;33.25;15.57;;;;;;;;;;4816220;29;20229;-66
2022/03/14 12:28:35;;;;;;;33.42;15.48;;;;;;;;;;4819336;29;20437;-67
2022/03/14 12:31:04;;;;;;;33.83;16.13;;;;;;;;;;4819060;29;20099;-66
2022/03/14 12:33:34;;;;;;;32.40;15.63;;;;;;;;;;4833737;29;20050;-67
2022/03/14 12:36:19;;;;;;;33.13;15.57;;;;;;;;;;4819340;29;20138;-67
2022/03/14 12:39:04;;;;;;;36.38;17.17;;;;;;;;;;4819715;29;20054;-67
2022/03/14 12:41:30;;;;;;;38.55;16.92;;;;;;;;;;4819120;29;20130;-65
2022/03/14 12:43:57;;;;;;;37.55;17.20;;;;;;;;;;4818829;29;20093;-67
2022/03/14 12:46:23;;;;;;;34.63;17.45;;;;;;;;;;4818986;29;20058;-66
2022/03/14 12:48:53;;;;;;;38.83;18.15;;;;;;;;;;4819160;29;20064;-67
2022/03/14 12:51:26;;;;;;;37.67;17.60;;;;;;;;;;4819233;29;20119;-67
2022/03/14 12:53:59;;;;;;;35.40;16.15;;;;;;;;;;4819405;29;20054;-65
2022/03/14 12:56:28;;;;;;;34.17;17.70;;;;;;;;;;4802953;29;20074;-67
2022/03/14 12:59:07;;;;;;;33.33;17.25;;;;;;;;;;4819633;29;20054;-67
2022/03/14 13:01:37;;;;;;;42.13;16.77;;;;;;;;;;4819327;29;20133;-67
2022/03/14 13:04:05;;;;;;;41.17;17.60;;;;;;;;;;4832862;29;20061;-68
2022/03/14 13:06:41;;;;;;;38.10;16.90;;;;;;;;;;4832714;29;20061;-68
2022/03/14 13:09:07;;;;;;;34.53;15.90;;;;;;;;;;4819165;29;20591;-66
2022/03/14 13:11:34;;;;;;;;;;;;;;;;;;4819509;29;20145;-67
2022/03/14 13:14:18;;;;;;;36.00;16.90;;;;;;;;;;4819253;29;20297;-68
2022/03/14 13:16:44;;;;;;;33.85;15.05;;;;;;;;;;4819414;29;20055;-66
2022/03/14 13:19:14;;;;;;;36.60;15.55;;;;;;;;;;4819592;29;20488;-66
2022/03/14 13:21:41;;;;;;;31.13;13.70;;;;;;;;;;4819433;29;20086;-67
2022/03/14 13:24:07;;;;;;;;;;;;;;;;;;4833469;29;20098;-65
2022/03/14 13:26:34;;;;;;;34.95;14.70;;;;;;;;;;4819435;29;19931;-68
2022/03/14 13:29:04;;;;;;;31.45;12.57;;;;;;;;;;4817873;29;20077;-67
2022/03/14 13:31:40;;;;;;;24.77;12.38;;;;;;;;;;4802896;29;20070;-66
2022/03/14 13:34:11;;;;;;;32.80;12.25;;;;;;;;;;4818966;29;20054;-66
2022/03/14 13:36:38;;;;;;;29.83;12.52;;;;;;;;;;4818606;29;20069;-66
2022/03/14 13:39:05;;;;;;;32.80;13.65;;;;;;;;;;4818822;29;20056;-66
2022/03/14 13:41:31;;;;;;;32.13;12.77;;;;;;;;;;4818713;29;20137;-66
2022/03/14 13:43:58;;;;;;;24.98;12.57;;;;;;;;;;4818276;29;20518;-66
2022/03/14 13:46:35;;;;;;;36.80;13.07;;;;;;;;;;4832216;29;20154;-66
2022/03/14 13:49:19;;;;;;;31.27;12.30;;;;;;;;;;4818453;29;20462;-66
2022/03/14 13:51:51;;;;;;;31.67;12.20;;;;;;;;;;4818445;29;20151;-66
2022/03/14 13:54:25;;;;;;;27.30;10.38;;;;;;;;;;4818018;29;20146;-66
2022/03/14 13:56:55;;;;;;;24.45;10.48;;;;;;;;;;4817999;29;20058;-65
2022/03/14 13:59:30;;;;;;;24.00;9.55;;;;;;;;;;4818331;29;20077;-65
2022/03/14 14:01:58;;;;;;;22.02;10.00;;;;;;;;;;4818578;29;20054;-65
2022/03/14 14:04:26;;;;;;;23.85;8.93;;;;;;;;;;4818619;29;20046;-65
2022/03/14 14:06:56;;;;;;;27.33;9.82;;;;;;;;;;4818416;29;20126;-65
2022/03/14 14:09:25;;;;;;;26.17;10.20;;;;;;;;;;4802009;29;20054;-65
2022/03/14 14:11:57;;;;;;;24.10;10.38;;;;;;;;;;4818607;29;20073;-68
2022/03/14 14:14:27;;;;;;;25.25;9.77;;;;;;;;;;4818030;29;20114;-68
2022/03/14 14:16:53;;;;;;;26.33;9.73;;;;;;;;;;4818289;29;20204;-68
2022/03/14 14:19:22;;;;;;;;;;;;;;;;;;4818390;29;20140;-66
2022/03/14 14:21:55;;;;;;;28.40;10.75;;;;;;;;;;4817968;29;20359;-65
2022/03/14 14:24:24;;;;;;;28.25;9.38;;;;;;;;;;4818504;29;20118;-65
2022/03/14 14:26:54;;;;;;;24.60;9.98;;;;;;;;;;4818412;29;20118;-66
2022/03/14 14:29:38;;;;;;;23.90;9.27;;;;;;;;;;4818530;29;20133;-68
2022/03/14 14:32:18;;;;;;;26.30;9.38;;;;;;;;;;4818636;29;20053;-63
2022/03/14 14:34:47;;;;;;;22.90;7.78;;;;;;;;;;4818517;29;20046;-65